Time;durP1;ratioP1;P1;durP2;ratioP2;P2;SDS_P1;SDS_P2;PMS_P1;PMS_P2;Temp;Humidity;BMP_temperature;BMP_pressure;BME280_temperature;BME280_humidity;BME280_pressure;Samples;Min_cycle;Max_cycle;Signal;HPM_P1;HPM_P2
2022/09/24 03:01:28;;;;;;;1.10;1.00;;;14.10;78.70;;;;;;5614614;23;20638;-73
2022/09/24 03:03:55;;;;;;;0.80;0.80;;;14.00;79.00;;;;;;4938013;29;20496;-73
2022/09/24 03:06:23;;;;;;;1.10;1.10;;;14.00;79.50;;;;;;4937638;29;21015;-73
2022/09/24 03:08:51;;;;;;;0.90;0.90;;;14.00;79.50;;;;;;4937870;29;20452;-72
2022/09/24 03:11:17;;;;;;;0.80;0.80;;;14.00;79.80;;;;;;4937678;29;20519;-73
2022/09/24 03:13:44;;;;;;;0.80;0.80;;;14.10;79.70;;;;;;4939254;29;20531;-71
2022/09/24 03:16:10;;;;;;;0.70;0.70;;;14.10;79.60;;;;;;4937740;29;20869;-71
2022/09/24 03:18:38;;;;;;;0.90;0.90;;;14.20;79.60;;;;;;4937693;29;20866;-71
2022/09/24 03:21:07;;;;;;;0.80;0.80;;;14.20;79.30;;;;;;4937591;29;20468;-71
2022/09/24 03:23:34;;;;;;;1.00;1.00;;;14.20;79.10;;;;;;4937873;29;20456;-71
2022/09/24 03:26:01;;;;;;;0.90;0.90;;;14.20;79.10;;;;;;4937559;29;20858;-71
2022/09/24 03:28:28;;;;;;;0.87;0.83;;;14.30;79.10;;;;;;4937484;29;20448;-71
2022/09/24 03:31:00;;;;;;;0.90;0.90;;;14.30;78.90;;;;;;4937302;29;20532;-71
2022/09/24 03:33:28;;;;;;;0.90;0.90;;;14.30;79.10;;;;;;4937428;29;20460;-71
2022/09/24 03:35:57;;;;;;;0.93;0.93;;;14.00;79.60;;;;;;4937390;29;20448;-71
2022/09/24 03:38:25;;;;;;;0.87;0.87;;;14.10;79.70;;;;;;4937309;29;20507;-71
2022/09/24 03:40:51;;;;;;;0.90;0.90;;;14.10;79.60;;;;;;4937198;29;20476;-71
2022/09/24 03:43:18;;;;;;;0.90;0.90;;;14.20;79.30;;;;;;4937159;29;20829;-71
2022/09/24 03:45:45;;;;;;;0.80;0.80;;;14.30;79.30;;;;;;4937199;29;20503;-71
2022/09/24 03:48:12;;;;;;;1.00;1.00;;;14.30;79.40;;;;;;4937132;29;20543;-71
2022/09/24 03:50:39;;;;;;;1.00;0.90;;;14.30;79.30;;;;;;4936738;29;20947;-71
2022/09/24 03:53:07;;;;;;;0.90;0.90;;;14.40;79.30;;;;;;4936988;29;20490;-71
2022/09/24 03:55:33;;;;;;;0.90;0.90;;;14.40;79.30;;;;;;4937459;29;20854;-71
2022/09/24 03:58:00;;;;;;;0.80;0.80;;;14.40;79.30;;;;;;4937474;29;20451;-71
2022/09/24 04:00:27;;;;;;;1.10;1.00;;;14.50;79.30;;;;;;4936814;29;20451;-71
2022/09/24 04:02:54;;;;;;;1.20;1.10;;;14.50;79.30;;;;;;4936761;29;20876;-71
2022/09/24 04:05:21;;;;;;;0.80;0.80;;;14.40;78.80;;;;;;4936826;29;20451;-71
2022/09/24 04:07:47;;;;;;;0.93;0.93;;;14.20;79.40;;;;;;4937048;29;20463;-71
2022/09/24 04:10:15;;;;;;;1.13;1.13;;;14.30;79.60;;;;;;4936476;29;20943;-71
2022/09/24 04:12:44;;;;;;;2.23;0.93;;;14.40;79.50;;;;;;4936567;29;20487;-71
2022/09/24 04:15:11;;;;;;;1.07;1.07;;;14.40;79.20;;;;;;4936648;29;20452;-71
2022/09/24 04:17:38;;;;;;;0.70;0.70;;;14.50;79.30;;;;;;4936647;29;20452;-71
2022/09/24 04:20:05;;;;;;;0.90;0.90;;;14.50;79.00;;;;;;4936626;29;20865;-71
2022/09/24 04:22:32;;;;;;;0.97;0.97;;;14.50;79.10;;;;;;4936530;29;20503;-71
2022/09/24 04:24:59;;;;;;;1.10;1.10;;;14.50;79.00;;;;;;4936515;29;20465;-71
2022/09/24 04:27:27;;;;;;;1.00;1.00;;;14.50;78.70;;;;;;4936411;29;20944;-71
2022/09/24 04:29:54;;;;;;;1.00;1.00;;;14.50;78.90;;;;;;4936450;29;20488;-71
2022/09/24 04:32:21;;;;;;;0.90;0.90;;;14.60;78.70;;;;;;4935950;29;20920;-71
2022/09/24 04:34:48;;;;;;;1.10;0.97;;;14.70;78.40;;;;;;4936390;29;20496;-71
2022/09/24 04:37:14;;;;;;;1.00;1.00;;;14.70;78.10;;;;;;4936414;29;20456;-71
2022/09/24 04:39:41;;;;;;;1.33;1.23;;;14.80;78.10;;;;;;4936370;29;20453;-71
2022/09/24 04:42:07;;;;;;;1.00;1.00;;;14.90;77.80;;;;;;4936259;29;20476;-71
2022/09/24 04:44:35;;;;;;;0.90;0.90;;;14.90;77.60;;;;;;4935979;29;20943;-71
2022/09/24 04:47:02;;;;;;;1.03;1.03;;;15.00;77.60;;;;;;4935983;29;20507;-71
2022/09/24 04:49:29;;;;;;;1.00;1.00;;;15.00;77.40;;;;;;4936285;29;20499;-71
2022/09/24 04:51:56;;;;;;;1.30;0.90;;;14.90;76.90;;;;;;4936083;29;20583;-71
2022/09/24 04:54:23;;;;;;;1.00;1.00;;;14.80;77.00;;;;;;4936235;29;20464;-71
2022/09/24 04:56:50;;;;;;;0.90;0.90;;;14.70;77.50;;;;;;4936204;29;20452;-71
2022/09/24 04:59:17;;;;;;;1.00;0.90;;;14.70;77.60;;;;;;4935943;29;20436;-71
2022/09/24 05:01:46;;;;;;;1.53;1.00;;;14.80;77.60;;;;;;4935866;29;20512;-71
2022/09/24 05:04:12;;;;;;;1.30;1.20;;;14.80;77.50;;;;;;4936117;29;20506;-71
2022/09/24 05:06:39;;;;;;;1.53;1.00;;;14.80;77.40;;;;;;4936105;29;20456;-71
2022/09/24 05:09:05;;;;;;;0.90;0.90;;;14.80;77.50;;;;;;4935933;29;20512;-71
2022/09/24 05:11:32;;;;;;;1.00;1.00;;;14.70;77.60;;;;;;4935922;29;20476;-71
2022/09/24 05:13:59;;;;;;;1.20;1.20;;;14.80;77.50;;;;;;4936042;29;20447;-71
2022/09/24 05:16:26;;;;;;;0.90;0.90;;;14.80;77.50;;;;;;4935722;29;21022;-71
2022/09/24 05:18:54;;;;;;;1.00;1.00;;;14.80;77.50;;;;;;4935911;29;20871;-71
2022/09/24 05:21:21;;;;;;;1.00;1.00;;;14.80;77.60;;;;;;4939724;29;20563;-71
2022/09/24 05:23:48;;;;;;;0.80;0.80;;;14.80;77.70;;;;;;4939776;29;20511;-71
2022/09/24 05:29:13;;;;;;;0.90;0.80;;;14.60;78.30;;;;;;4899764;29;20493;-71
2022/09/24 05:31:39;;;;;;;0.87;0.87;;;14.60;78.70;;;;;;4899332;29;21082;-71
2022/09/24 05:34:07;;;;;;;0.97;0.97;;;14.70;78.40;;;;;;4916585;29;20455;-71
2022/09/24 05:36:34;;;;;;;0.90;0.90;;;14.50;78.60;;;;;;4939533;29;20455;-71
2022/09/24 05:39:01;;;;;;;1.00;1.00;;;14.50;78.70;;;;;;4939507;29;20539;-71
2022/09/24 05:41:28;;;;;;;1.10;1.00;;;14.30;79.30;;;;;;4939375;29;20483;-71
2022/09/24 05:43:58;;;;;;;1.00;0.90;;;14.30;79.30;;;;;;4939120;29;20448;-71
2022/09/24 05:46:25;;;;;;;0.97;0.97;;;14.30;79.60;;;;;;4939437;29;20440;-71
2022/09/24 05:48:52;;;;;;;1.37;0.80;;;14.40;79.40;;;;;;4939384;29;20823;-71
2022/09/24 05:51:20;;;;;;;0.90;0.90;;;14.40;79.60;;;;;;4939190;29;20467;-71
2022/09/24 05:53:47;;;;;;;0.90;0.90;;;14.40;79.50;;;;;;4939170;29;20483;-71
2022/09/24 05:56:13;;;;;;;0.90;0.90;;;14.40;79.60;;;;;;4939192;29;20459;-71
2022/09/24 05:58:40;;;;;;;0.70;0.70;;;14.40;79.60;;;;;;4939994;29;20503;-71
2022/09/24 06:01:07;;;;;;;0.90;0.90;;;14.50;79.60;;;;;;4938988;29;20499;-71
2022/09/24 06:03:34;;;;;;;0.83;0.80;;;14.60;79.40;;;;;;4939164;29;20436;-71
2022/09/24 06:06:01;;;;;;;0.80;0.80;;;14.70;79.30;;;;;;4939068;29;20508;-71
2022/09/24 06:08:30;;;;;;;0.77;0.77;;;14.80;79.30;;;;;;4938965;29;20539;-71
2022/09/24 06:10:59;;;;;;;0.90;0.90;;;14.90;79.00;;;;;;4938887;29;20519;-73
2022/09/24 06:13:26;;;;;;;0.90;0.90;;;15.00;78.80;;;;;;4938825;29;20484;-72
2022/09/24 06:16:23;;;;;;;0.90;0.90;;;15.00;79.00;;;;;;4938846;29;20455;-71
2022/09/24 06:18:50;;;;;;;1.00;0.77;;;15.00;78.90;;;;;;4932893;29;20550;-71
2022/09/24 06:21:17;;;;;;;0.80;0.80;;;15.00;79.00;;;;;;4938711;29;20523;-71
2022/09/24 06:23:45;;;;;;;0.87;0.87;;;15.00;78.80;;;;;;4938687;29;20447;-71
2022/09/24 06:26:13;;;;;;;0.90;0.90;;;14.90;79.50;;;;;;4938684;29;20447;-71
2022/09/24 06:28:41;;;;;;;0.70;0.70;;;14.90;79.60;;;;;;4938322;29;20456;-71
2022/09/24 06:31:09;;;;;;;1.03;1.03;;;14.70;80.40;;;;;;4937965;29;20472;-71
2022/09/24 06:33:36;;;;;;;1.00;1.00;;;14.80;80.50;;;;;;4938479;29;20897;-71
2022/09/24 06:36:04;;;;;;;0.80;0.80;;;14.80;80.50;;;;;;4938473;29;20460;-71
2022/09/24 06:38:31;;;;;;;0.80;0.80;;;14.90;80.20;;;;;;4938194;29;20484;-71
2022/09/24 06:41:01;;;;;;;1.00;1.00;;;14.80;80.70;;;;;;4938336;29;20476;-71
2022/09/24 06:43:28;;;;;;;0.70;0.70;;;14.70;80.80;;;;;;4938345;29;20448;-72
2022/09/24 06:45:55;;;;;;;1.37;0.90;;;14.60;80.90;;;;;;4938356;29;20452;-72
2022/09/24 06:48:22;;;;;;;0.80;0.80;;;14.60;81.80;;;;;;4938326;29;20511;-72
2022/09/24 06:50:50;;;;;;;0.90;0.90;;;14.60;81.40;;;;;;4938085;29;20523;-71
2022/09/24 06:53:17;;;;;;;0.80;0.80;;;14.50;81.90;;;;;;4937840;29;21107;-72
2022/09/24 06:55:43;;;;;;;0.80;0.80;;;14.60;82.00;;;;;;4938104;29;20456;-72
2022/09/24 06:58:13;;;;;;;0.80;0.80;;;14.80;81.60;;;;;;4938144;29;20452;-72
2022/09/24 07:00:40;;;;;;;0.90;0.90;;;14.90;81.00;;;;;;4937516;29;20495;-72
2022/09/24 07:03:10;;;;;;;0.80;0.80;;;14.90;81.20;;;;;;4937763;29;20436;-71
2022/09/24 07:05:37;;;;;;;0.70;0.70;;;14.70;81.70;;;;;;4937942;29;20452;-71
2022/09/24 07:08:03;;;;;;;0.80;0.80;;;14.60;82.30;;;;;;4937943;29;20448;-72
2022/09/24 07:10:31;;;;;;;0.80;0.80;;;14.70;82.50;;;;;;4937472;29;20798;-71
2022/09/24 07:12:57;;;;;;;0.73;0.73;;;14.90;81.80;;;;;;4937416;29;21024;-72
2022/09/24 07:15:25;;;;;;;1.43;1.33;;;15.00;81.70;;;;;;4937782;29;20456;-71
2022/09/24 07:17:56;;;;;;;0.70;0.70;;;15.00;81.50;;;;;;4937933;29;20456;-73
2022/09/24 07:20:23;;;;;;;0.70;0.70;;;15.10;81.70;;;;;;4937790;29;20441;-71
2022/09/24 07:22:49;;;;;;;0.80;0.80;;;15.20;81.20;;;;;;4937684;29;20448;-72
2022/09/24 07:25:16;;;;;;;0.80;0.80;;;15.20;80.90;;;;;;4938080;29;20830;-72
2022/09/24 07:27:43;;;;;;;0.70;0.70;;;15.10;81.20;;;;;;4937588;29;20823;-73
2022/09/24 07:30:12;;;;;;;1.10;0.90;;;14.90;81.80;;;;;;4937509;29;20872;-73
2022/09/24 07:32:40;;;;;;;0.80;0.80;;;14.90;82.20;;;;;;4937254;29;20488;-73
2022/09/24 07:35:07;;;;;;;1.33;0.90;;;14.90;82.10;;;;;;4937419;29;20456;-73
2022/09/24 07:37:33;;;;;;;0.73;0.73;;;14.90;82.00;;;;;;4937342;29;20452;-71
2022/09/24 07:40:00;;;;;;;0.70;0.70;;;15.00;82.10;;;;;;4937315;29;20457;-71
2022/09/24 07:42:27;;;;;;;0.70;0.70;;;15.20;81.90;;;;;;4936364;29;20527;-71
2022/09/24 07:44:55;;;;;;;0.77;0.77;;;15.30;81.90;;;;;;4937194;29;20459;-71
2022/09/24 07:47:22;;;;;;;1.43;0.80;;;15.40;81.00;;;;;;4937197;29;20452;-71
2022/09/24 07:49:50;;;;;;;0.70;0.70;;;15.40;80.70;;;;;;4937158;29;20475;-71
2022/09/24 07:52:17;;;;;;;0.90;0.90;;;15.30;80.70;;;;;;4936926;29;20472;-72
2022/09/24 07:54:44;;;;;;;0.90;0.90;;;15.30;81.20;;;;;;4937291;29;20487;-72
2022/09/24 07:57:12;;;;;;;0.80;0.80;;;15.50;81.00;;;;;;4937021;29;20443;-72
2022/09/24 07:59:39;;;;;;;0.70;0.70;;;15.70;80.70;;;;;;4937056;29;20562;-72
2022/09/24 08:02:13;;;;;;;0.60;0.60;;;15.90;80.10;;;;;;4936822;29;20480;-73
2022/09/24 08:04:40;;;;;;;0.70;0.70;;;15.90;80.10;;;;;;4936638;29;20483;-73
2022/09/24 08:07:09;;;;;;;0.70;0.70;;;15.90;79.70;;;;;;4936881;29;20483;-72
2022/09/24 08:09:36;;;;;;;1.07;0.70;;;15.90;79.20;;;;;;4936824;29;20452;-72
2022/09/24 08:12:03;;;;;;;0.60;0.60;;;15.60;80.00;;;;;;4936422;29;20988;-72
2022/09/24 08:14:30;;;;;;;0.70;0.70;;;15.70;80.20;;;;;;4936635;29;20491;-72
2022/09/24 08:16:56;;;;;;;0.80;0.80;;;15.80;80.80;;;;;;4936707;29;20871;-72
2022/09/24 08:19:23;;;;;;;0.70;0.70;;;15.80;80.00;;;;;;4936647;29;20507;-72
2022/09/24 08:21:50;;;;;;;0.70;0.70;;;15.80;81.00;;;;;;4936532;29;20484;-72
2022/09/24 08:24:18;;;;;;;0.67;0.60;;;15.80;80.70;;;;;;4936598;29;20504;-72
2022/09/24 08:26:44;;;;;;;0.70;0.70;;;15.80;80.70;;;;;;4936486;29;20452;-72
2022/09/24 08:29:11;;;;;;;0.70;0.70;;;15.90;80.80;;;;;;4936140;29;20829;-72
2022/09/24 08:31:40;;;;;;;0.60;0.60;;;15.90;80.50;;;;;;4936441;29;20601;-72
2022/09/24 08:34:06;;;;;;;0.70;0.63;;;15.80;80.80;;;;;;4936414;29;20492;-72
2022/09/24 08:36:33;;;;;;;0.67;0.60;;;15.90;80.90;;;;;;4936108;29;20948;-72
2022/09/24 08:39:00;;;;;;;0.93;0.73;;;15.90;80.90;;;;;;4936119;29;20515;-72
2022/09/24 08:41:42;;;;;;;0.80;0.80;;;16.00;80.80;;;;;;4936307;29;20527;-72
2022/09/24 08:47:21;;;;;;;0.60;0.60;;;16.00;80.70;;;;;;4936351;29;20428;-72
2022/09/24 08:47:21;;;;;;;0.70;0.70;;;16.00;80.90;;;;;;4935946;29;20484;-73
2022/09/24 08:49:54;;;;;;;0.70;0.70;;;15.80;81.40;;;;;;4936144;29;20428;-73
2022/09/24 08:52:30;;;;;;;0.73;0.73;;;15.80;82.90;;;;;;4936171;29;20522;-72
2022/09/24 08:55:01;;;;;;;0.80;0.80;;;16.00;82.60;;;;;;4936584;29;20436;-73
2022/09/24 08:57:30;;;;;;;0.80;0.80;;;15.50;83.60;;;;;;4936075;29;20460;-73
2022/09/24 08:59:57;;;;;;;0.80;0.80;;;15.60;84.70;;;;;;4936129;29;20448;-72
2022/09/24 09:02:38;;;;;;;0.80;0.80;;;15.80;84.40;;;;;;4935740;29;20536;-72
2022/09/24 09:05:15;;;;;;;0.70;0.70;;;15.70;83.10;;;;;;4936136;29;20484;-73
2022/09/24 09:07:47;;;;;;;0.70;0.70;;;15.60;84.10;;;;;;4936089;29;20427;-72
2022/09/24 09:10:17;;;;;;;0.60;0.60;;;15.80;84.90;;;;;;4935828;29;20483;-72
2022/09/24 09:12:53;;;;;;;0.80;0.80;;;15.70;84.20;;;;;;4935929;29;20471;-72
2022/09/24 09:15:24;;;;;;;0.77;0.77;;;15.50;86.10;;;;;;4937575;29;20495;-72
2022/09/24 09:17:54;;;;;;;0.70;0.70;;;15.60;86.50;;;;;;4936100;29;20499;-73
2022/09/24 09:20:28;;;;;;;0.83;0.83;;;15.90;86.50;;;;;;4936044;29;20440;-73
2022/09/24 09:22:55;;;;;;;0.80;0.80;;;15.80;85.40;;;;;;4936054;29;20495;-72
2022/09/24 09:25:24;;;;;;;0.80;0.80;;;15.90;85.90;;;;;;4935983;29;20511;-73
2022/09/24 09:27:58;;;;;;;0.70;0.70;;;15.90;85.90;;;;;;4935946;29;20459;-73
2022/09/24 09:30:24;;;;;;;0.90;0.90;;;16.00;86.20;;;;;;4935955;29;20445;-72
2022/09/24 09:33:13;;;;;;;0.70;0.70;;;16.10;86.50;;;;;;4936068;29;20503;-72
2022/09/24 09:35:48;;;;;;;0.90;0.90;;;16.00;85.90;;;;;;4935893;29;20855;-73
2022/09/24 09:38:24;;;;;;;0.80;0.80;;;16.00;86.90;;;;;;4936428;29;20439;-73
2022/09/24 09:40:59;;;;;;;0.70;0.70;;;16.00;86.90;;;;;;4935322;29;20892;-72
2022/09/24 09:43:27;;;;;;;0.80;0.80;;;16.20;87.00;;;;;;4935731;29;20539;-73
2022/09/24 09:46:07;;;;;;;0.90;0.90;;;16.10;86.50;;;;;;4935637;29;20455;-73
2022/09/24 09:48:43;;;;;;;0.60;0.60;;;15.90;85.40;;;;;;4935566;29;20523;-73
2022/09/24 09:51:16;;;;;;;0.90;0.67;;;15.80;86.60;;;;;;4935601;29;20476;-73
2022/09/24 09:53:54;;;;;;;0.60;0.60;;;16.00;86.90;;;;;;4935553;29;20563;-73
2022/09/24 09:56:24;;;;;;;0.70;0.70;;;16.20;87.00;;;;;;4935554;29;20435;-73
2022/09/24 09:59:01;;;;;;;0.77;0.77;;;16.40;86.30;;;;;;4935779;29;20460;-73
2022/09/24 10:01:31;;;;;;;1.47;0.70;;;16.50;85.40;;;;;;4935268;29;20531;-72
2022/09/24 10:04:01;;;;;;;0.70;0.70;;;16.50;86.10;;;;;;4935456;29;20464;-73
2022/09/24 10:06:30;;;;;;;0.60;0.60;;;16.60;86.50;;;;;;4938169;29;20455;-73
2022/09/24 10:09:07;;;;;;;0.70;0.70;;;16.40;84.60;;;;;;4938504;29;20948;-72
2022/09/24 10:11:34;;;;;;;0.70;0.70;;;16.20;86.10;;;;;;4938761;29;20555;-73
2022/09/24 10:14:09;;;;;;;0.70;0.70;;;16.40;86.30;;;;;;4938644;29;20491;-72
2022/09/24 10:16:38;;;;;;;0.80;0.80;;;16.50;85.80;;;;;;4938755;29;20439;-73
2022/09/24 10:19:12;;;;;;;0.70;0.70;;;16.40;84.70;;;;;;4939489;29;20506;-72
2022/09/24 10:21:38;;;;;;;0.70;0.63;;;16.50;85.10;;;;;;4938329;29;20523;-73
2022/09/24 10:24:15;;;;;;;0.70;0.70;;;16.60;84.30;;;;;;4938359;29;20522;-73
2022/09/24 10:26:43;;;;;;;0.60;0.60;;;16.50;84.60;;;;;;4939089;29;20440;-72
2022/09/24 10:32:00;;;;;;;0.70;0.70;;;16.40;84.80;;;;;;4938619;29;20499;-73
2022/09/24 10:34:28;;;;;;;0.70;0.70;;;16.50;85.50;;;;;;4938328;29;20484;-73
2022/09/24 10:37:00;;;;;;;0.60;0.60;;;16.70;85.30;;;;;;4938420;29;20531;-72
2022/09/24 10:39:27;;;;;;;0.70;0.70;;;16.60;85.40;;;;;;4938408;29;20512;-72
2022/09/24 10:41:56;;;;;;;0.70;0.70;;;16.60;85.30;;;;;;4938281;29;20476;-72
2022/09/24 10:44:26;;;;;;;0.70;0.70;;;16.80;85.00;;;;;;4938177;29;20535;-72
2022/09/24 10:47:16;;;;;;;0.70;0.70;;;16.70;84.30;;;;;;4938949;29;20452;-72
2022/09/24 10:50:02;;;;;;;0.70;0.70;;;16.40;85.70;;;;;;4937883;29;20857;-72
2022/09/24 10:52:44;;;;;;;0.70;0.70;;;16.30;86.70;;;;;;4938061;29;20475;-72
2022/09/24 10:55:25;;;;;;;0.60;0.60;;;16.30;86.90;;;;;;4937955;29;20526;-71
2022/09/24 10:58:02;;;;;;;0.60;0.60;;;16.50;86.80;;;;;;4937683;29;20805;-72
2022/09/24 11:00:37;;;;;;;0.70;0.70;;;16.60;86.50;;;;;;4937902;29;20522;-72
2022/09/24 11:03:26;;;;;;;0.70;0.70;;;16.40;86.80;;;;;;4938002;29;20484;-72
2022/09/24 11:05:54;;;;;;;0.80;0.80;;;16.10;88.40;;;;;;4938295;29;20440;-72
2022/09/24 11:08:30;;;;;;;0.70;0.70;;;16.30;88.40;;;;;;4938093;29;20868;-72
2022/09/24 11:11:16;;;;;;;0.70;0.70;;;16.40;87.80;;;;;;4938724;29;20475;-72
2022/09/24 11:13:54;;;;;;;0.80;0.80;;;16.50;87.80;;;;;;4937989;29;20479;-73
2022/09/24 11:16:57;;;;;;;0.70;0.70;;;16.40;87.40;;;;;;4937858;29;20476;-72
2022/09/24 11:19:48;;;;;;;0.70;0.70;;;16.30;89.00;;;;;;4937803;29;20436;-73
2022/09/24 11:22:17;;;;;;;0.70;0.70;;;16.50;88.70;;;;;;4937637;29;20468;-72
2022/09/24 11:25:00;;;;;;;0.60;0.60;;;16.60;89.00;;;;;;4937594;29;20448;-72
2022/09/24 11:27:53;;;;;;;0.80;0.80;;;16.60;88.00;;;;;;4937629;29;20432;-73
2022/09/24 11:30:21;;;;;;;0.70;0.70;;;16.60;88.10;;;;;;4935054;29;20460;-72
2022/09/24 11:33:11;;;;;;;0.80;0.80;;;16.70;88.40;;;;;;4937457;29;20574;-73
2022/09/24 11:36:14;;;;;;;0.60;0.60;;;16.80;88.10;;;;;;4935097;29;20484;-73
2022/09/24 11:38:56;;;;;;;0.70;0.70;;;16.80;87.90;;;;;;4937291;29;20440;-72
2022/09/24 11:41:30;;;;;;;0.70;0.70;;;16.70;86.50;;;;;;4936932;29;20472;-72
2022/09/24 11:44:12;;;;;;;0.70;0.70;;;16.50;87.90;;;;;;4936988;29;20864;-72
2022/09/24 11:46:50;;;;;;;0.60;0.60;;;16.80;88.00;;;;;;4937267;29;20877;-72
2022/09/24 11:49:52;;;;;;;0.70;0.70;;;16.80;88.20;;;;;;4937263;29;20444;-73
2022/09/24 11:52:29;;;;;;;0.70;0.70;;;17.00;88.00;;;;;;4922541;29;20578;-73
2022/09/24 11:55:01;;;;;;;0.70;0.70;;;17.00;86.90;;;;;;4936773;29;21046;-73
2022/09/24 11:57:31;;;;;;;0.70;0.70;;;16.90;87.30;;;;;;4937209;29;20432;-73
2022/09/24 12:00:05;;;;;;;0.80;0.80;;;16.90;87.10;;;;;;4938284;29;20928;-73
2022/09/24 12:02:36;;;;;;;0.70;0.70;;;16.80;88.20;;;;;;4937248;29;20583;-73
2022/09/24 12:05:09;;;;;;;0.70;0.70;;;16.90;87.30;;;;;;4937292;29;20459;-73
2022/09/24 12:07:40;;;;;;;0.80;0.80;;;16.90;88.20;;;;;;4937704;29;20456;-73
2022/09/24 12:10:25;;;;;;;0.70;0.70;;;17.10;88.10;;;;;;4937282;29;20451;-73
2022/09/24 12:12:56;;;;;;;0.80;0.80;;;17.30;87.70;;;;;;4937330;29;20935;-73
2022/09/24 12:15:27;;;;;;;0.70;0.70;;;17.40;87.30;;;;;;4937897;29;20480;-73
2022/09/24 12:17:57;;;;;;;0.70;0.70;;;17.40;85.70;;;;;;4937633;29;20437;-73
2022/09/24 12:20:28;;;;;;;0.73;0.73;;;17.60;86.30;;;;;;4936688;29;20547;-72
2022/09/24 12:22:58;;;;;;;0.80;0.80;;;17.70;86.00;;;;;;4936696;29;20531;-73
2022/09/24 12:25:29;;;;;;;0.70;0.70;;;17.80;86.00;;;;;;4936527;29;20432;-73
2022/09/24 12:27:56;;;;;;;0.80;0.80;;;17.90;85.30;;;;;;4935996;29;20980;-73
2022/09/24 12:33:21;;;;;;;0.70;0.70;;;17.80;85.40;;;;;;4936491;29;20412;-74
2022/09/24 12:36:00;;;;;;;0.80;0.80;;;17.60;84.80;;;;;;4936168;29;20975;-72
2022/09/24 12:38:32;;;;;;;0.80;0.80;;;17.50;84.90;;;;;;4936335;29;20440;-72
2022/09/24 12:41:16;;;;;;;0.70;0.70;;;17.40;85.50;;;;;;4936219;29;20566;-71
2022/09/24 12:43:47;;;;;;;1.10;1.10;;;17.50;85.30;;;;;;4936271;29;20443;-72
2022/09/24 12:46:18;;;;;;;0.80;0.73;;;17.60;85.00;;;;;;4936287;29;20445;-72
2022/09/24 12:48:47;;;;;;;0.73;0.73;;;17.60;85.10;;;;;;4936263;29;20432;-72
2022/09/24 12:51:20;;;;;;;0.70;0.70;;;17.60;84.80;;;;;;4935808;29;20894;-72
2022/09/24 12:53:57;;;;;;;0.90;0.70;;;17.50;85.40;;;;;;4936167;29;20843;-73
2022/09/24 12:56:25;;;;;;;0.60;0.60;;;17.50;85.50;;;;;;4936335;29;20578;-73
2022/09/24 12:58:53;;;;;;;0.70;0.70;;;17.60;85.50;;;;;;4936108;29;20475;-73
2022/09/24 13:01:28;;;;;;;0.70;0.70;;;17.70;85.70;;;;;;4936007;29;20484;-73
2022/09/24 13:04:24;;;;;;;0.73;0.73;;;17.70;85.10;;;;;;4936051;29;20462;-73
2022/09/24 13:06:52;;;;;;;0.80;0.80;;;17.70;85.50;;;;;;4936029;29;20527;-73
2022/09/24 13:09:38;;;;;;;0.80;0.80;;;17.80;84.90;;;;;;4935945;29;20503;-73
2022/09/24 13:12:20;;;;;;;1.20;1.10;;;17.80;84.70;;;;;;4936148;29;20476;-73
2022/09/24 13:14:55;;;;;;;0.60;0.60;;;17.90;84.80;;;;;;4935850;29;20566;-73
2022/09/24 13:17:22;;;;;;;0.70;0.70;;;17.90;84.30;;;;;;4935628;29;20908;-73
2022/09/24 13:19:55;;;;;;;0.70;0.60;;;17.80;83.90;;;;;;4935611;29;20507;-73
2022/09/24 13:22:27;;;;;;;0.63;0.63;;;17.90;83.40;;;;;;4936787;29;20476;-75
2022/09/24 13:25:09;;;;;;;0.80;0.80;;;17.90;83.30;;;;;;4935991;29;20436;-76
2022/09/24 13:27:38;;;;;;;0.80;0.70;;;18.00;83.30;;;;;;4935970;29;20488;-73
2022/09/24 13:30:16;;;;;;;0.70;0.70;;;18.00;83.50;;;;;;4935908;29;20477;-73
2022/09/24 13:32:47;;;;;;;0.70;0.70;;;18.10;83.70;;;;;;4935828;29;20531;-73
2022/09/24 13:35:17;;;;;;;0.60;0.60;;;18.20;84.10;;;;;;4935833;29;20994;-72
2022/09/24 13:37:53;;;;;;;0.80;0.80;;;18.40;83.30;;;;;;4936671;29;20456;-73
2022/09/24 13:40:24;;;;;;;0.80;0.80;;;18.50;83.00;;;;;;4936794;29;20436;-73
2022/09/24 13:42:58;;;;;;;0.60;0.60;;;18.50;82.70;;;;;;4939231;29;20940;-73
2022/09/24 13:45:25;;;;;;;0.80;0.80;;;18.60;82.80;;;;;;4939453;29;20440;-73
2022/09/24 13:47:56;;;;;;;0.60;0.60;;;18.60;81.90;;;;;;4939382;29;20456;-72
2022/09/24 13:50:25;;;;;;;1.37;0.80;;;18.60;81.90;;;;;;4939141;29;20484;-72
2022/09/24 13:52:57;;;;;;;0.80;0.70;;;18.60;81.80;;;;;;4938824;29;20452;-73
2022/09/24 13:55:29;;;;;;;0.83;0.83;;;18.60;82.60;;;;;;4939695;29;20585;-73
2022/09/24 13:57:56;;;;;;;0.70;0.60;;;18.70;82.10;;;;;;4938979;29;20877;-73
2022/09/24 14:00:26;;;;;;;0.77;0.63;;;18.90;83.20;;;;;;4938721;29;20822;-73
2022/09/24 14:03:00;;;;;;;0.70;0.70;;;19.10;82.50;;;;;;4938814;29;20475;-73
2022/09/24 14:05:28;;;;;;;0.80;0.80;;;19.20;81.20;;;;;;4938733;29;20828;-73
2022/09/24 14:08:01;;;;;;;0.70;0.70;;;19.10;80.70;;;;;;4939045;29;20550;-73
2022/09/24 14:10:28;;;;;;;0.60;0.60;;;19.10;80.30;;;;;;4938935;29;20495;-72
2022/09/24 14:13:06;;;;;;;0.70;0.70;;;18.80;80.00;;;;;;4938966;29;20539;-73
2022/09/24 14:15:35;;;;;;;0.60;0.60;;;18.60;79.30;;;;;;4938824;29;20475;-72
2022/09/24 14:18:02;;;;;;;0.70;0.70;;;18.20;81.20;;;;;;4938890;29;20483;-73
2022/09/24 14:20:33;;;;;;;0.80;0.80;;;18.30;81.70;;;;;;4938787;29;20507;-73
2022/09/24 14:23:04;;;;;;;0.70;0.70;;;18.40;81.50;;;;;;4938860;29;20432;-73
2022/09/24 14:25:33;;;;;;;0.70;0.70;;;18.00;81.60;;;;;;4938817;29;20523;-73
2022/09/24 14:28:02;;;;;;;0.60;0.60;;;17.90;82.90;;;;;;4938486;29;20451;-73
2022/09/24 14:30:30;;;;;;;0.70;0.70;;;17.90;83.50;;;;;;4938593;29;20455;-73
2022/09/24 14:32:59;;;;;;;0.67;0.67;;;17.70;83.40;;;;;;4938487;29;20959;-73
2022/09/24 14:35:30;;;;;;;0.83;0.83;;;17.50;84.20;;;;;;4939577;29;20484;-73
2022/09/24 14:38:03;;;;;;;0.80;0.80;;;17.60;84.80;;;;;;4939171;29;20455;-73
2022/09/24 14:40:30;;;;;;;0.70;0.70;;;17.50;84.10;;;;;;4938425;29;20491;-73
2022/09/24 14:43:00;;;;;;;0.73;0.73;;;17.50;85.10;;;;;;4938109;29;20511;-73
2022/09/24 14:45:33;;;;;;;0.70;0.70;;;17.30;85.00;;;;;;4938455;29;20790;-73
2022/09/24 14:48:01;;;;;;;0.70;0.70;;;17.30;85.80;;;;;;4938413;29;20475;-73
2022/09/24 14:50:36;;;;;;;0.67;0.60;;;17.40;86.20;;;;;;4938197;29;20448;-72
2022/09/24 14:53:12;;;;;;;0.80;0.80;;;17.00;86.20;;;;;;4938199;29;20808;-73
2022/09/24 14:55:41;;;;;;;0.93;0.93;;;17.20;86.70;;;;;;4938256;29;20483;-74
2022/09/24 14:58:32;;;;;;;0.70;0.70;;;17.20;85.90;;;;;;4938157;29;20463;-74
2022/09/24 15:01:01;;;;;;;0.70;0.60;;;17.20;85.90;;;;;;4938986;29;20912;-73
2022/09/24 15:03:37;;;;;;;0.70;0.70;;;17.10;85.00;;;;;;4940957;29;20491;-75
2022/09/24 15:06:06;;;;;;;0.60;0.60;;;17.20;85.50;;;;;;4939269;29;20909;-73
2022/09/24 15:08:34;;;;;;;0.80;0.80;;;17.30;85.30;;;;;;4939948;29;20467;-72
2022/09/24 15:11:03;;;;;;;0.60;0.60;;;17.50;85.30;;;;;;4939779;29;20479;-73
2022/09/24 15:13:32;;;;;;;0.70;0.70;;;17.60;84.90;;;;;;4941242;29;20459;-75
2022/09/24 15:16:16;;;;;;;0.70;0.70;;;17.70;84.90;;;;;;4939924;29;20492;-74
2022/09/24 15:18:43;;;;;;;0.70;0.70;;;17.70;84.60;;;;;;4939960;29;20447;-75
2022/09/24 15:21:11;;;;;;;0.70;0.70;;;17.90;84.30;;;;;;4940314;29;20562;-75
2022/09/24 15:23:39;;;;;;;0.70;0.70;;;18.00;84.10;;;;;;4939777;29;20460;-75
2022/09/24 15:26:06;;;;;;;0.70;0.60;;;18.20;83.10;;;;;;4942034;29;20956;-74
2022/09/24 15:28:33;;;;;;;1.00;0.77;;;18.40;82.40;;;;;;4943078;29;20529;-74
2022/09/24 15:31:00;;;;;;;0.70;0.70;;;18.50;81.40;;;;;;4943051;29;20479;-75
2022/09/24 15:33:26;;;;;;;1.10;1.10;;;18.70;81.20;;;;;;4943358;29;20452;-75
2022/09/24 15:35:54;;;;;;;0.70;0.70;;;18.40;80.10;;;;;;4942733;29;20853;-75
2022/09/24 15:38:20;;;;;;;0.70;0.70;;;18.30;80.40;;;;;;4937416;29;20456;-73
2022/09/24 15:40:50;;;;;;;0.60;0.60;;;18.30;79.70;;;;;;4936992;29;20897;-73
2022/09/24 15:43:21;;;;;;;0.60;0.60;;;18.30;79.80;;;;;;4937326;29;20940;-73
2022/09/24 15:45:48;;;;;;;0.80;0.80;;;18.40;79.10;;;;;;4938279;29;20456;-73
2022/09/24 15:48:14;;;;;;;0.70;0.70;;;18.40;79.10;;;;;;4936918;29;20951;-73
2022/09/24 15:50:43;;;;;;;0.70;0.70;;;18.30;79.50;;;;;;4937155;29;20520;-73
2022/09/24 15:53:17;;;;;;;0.67;0.67;;;18.10;80.50;;;;;;4937132;29;20448;-73
2022/09/24 15:55:48;;;;;;;0.67;0.67;;;17.90;81.50;;;;;;4937117;29;20475;-73
2022/09/24 15:58:16;;;;;;;0.70;0.60;;;17.90;81.90;;;;;;4937061;29;20440;-73
2022/09/24 16:00:43;;;;;;;0.60;0.60;;;18.00;82.30;;;;;;4936498;29;20990;-73
2022/09/24 16:03:17;;;;;;;0.77;0.77;;;18.10;82.10;;;;;;4936019;29;20810;-73
2022/09/24 16:05:44;;;;;;;0.80;0.80;;;18.10;82.20;;;;;;4937132;29;20436;-73
2022/09/24 16:08:11;;;;;;;0.70;0.70;;;17.90;82.50;;;;;;4936925;29;20507;-73
2022/09/24 16:10:37;;;;;;;0.70;0.60;;;18.00;82.40;;;;;;4936797;29;20511;-73
2022/09/24 16:13:04;;;;;;;0.60;0.60;;;18.00;82.40;;;;;;4936844;29;20514;-73
2022/09/24 16:15:32;;;;;;;0.70;0.70;;;17.90;82.90;;;;;;4936731;29;20491;-73